sensor_id;sensor_type;location;lat;lon;timestamp;temperature;humidity
66596;SHT31;59017;49.252;18.838;2022-10-31T00:01:34;19.55;63.97
66596;SHT31;59017;49.252;18.838;2022-10-31T00:04:00;19.55;64.05
66596;SHT31;59017;49.252;18.838;2022-10-31T00:06:26;19.56;63.89
66596;SHT31;59017;49.252;18.838;2022-10-31T00:08:57;19.53;64.03
66596;SHT31;59017;49.252;18.838;2022-10-31T00:11:23;19.53;63.93
66596;SHT31;59017;49.252;18.838;2022-10-31T00:13:49;19.56;63.95
66596;SHT31;59017;49.252;18.838;2022-10-31T00:16:16;19.55;64.04
66596;SHT31;59017;49.252;18.838;2022-10-31T00:18:42;19.57;63.97
66596;SHT31;59017;49.252;18.838;2022-10-31T00:21:07;19.57;64.09
66596;SHT31;59017;49.252;18.838;2022-10-31T00:23:33;19.56;64.16
66596;SHT31;59017;49.252;18.838;2022-10-31T00:26:03;19.55;64.02
66596;SHT31;59017;49.252;18.838;2022-10-31T00:28:29;19.57;64.22
66596;SHT31;59017;49.252;18.838;2022-10-31T00:30:59;19.56;64.26
66596;SHT31;59017;49.252;18.838;2022-10-31T00:33:25;19.55;64.12
66596;SHT31;59017;49.252;18.838;2022-10-31T00:35:50;19.55;64.19
66596;SHT31;59017;49.252;18.838;2022-10-31T00:38:16;19.56;64.17
66596;SHT31;59017;49.252;18.838;2022-10-31T00:40:41;19.55;64.19
66596;SHT31;59017;49.252;18.838;2022-10-31T00:43:07;19.55;64.17
66596;SHT31;59017;49.252;18.838;2022-10-31T00:45:32;19.55;64.31
66596;SHT31;59017;49.252;18.838;2022-10-31T00:47:58;19.56;64.43
66596;SHT31;59017;49.252;18.838;2022-10-31T00:50:23;19.55;64.54
66596;SHT31;59017;49.252;18.838;2022-10-31T00:52:49;19.59;64.64
66596;SHT31;59017;49.252;18.838;2022-10-31T00:55:14;19.56;64.51
66596;SHT31;59017;49.252;18.838;2022-10-31T00:57:39;19.57;64.71
66596;SHT31;59017;49.252;18.838;2022-10-31T01:00:05;19.56;64.79
66596;SHT31;59017;49.252;18.838;2022-10-31T01:02:31;19.57;64.62
66596;SHT31;59017;49.252;18.838;2022-10-31T01:04:56;19.59;64.61
66596;SHT31;59017;49.252;18.838;2022-10-31T01:07:22;19.59;64.54
66596;SHT31;59017;49.252;18.838;2022-10-31T01:09:47;19.55;64.57
66596;SHT31;59017;49.252;18.838;2022-10-31T01:12:13;19.56;64.36
66596;SHT31;59017;49.252;18.838;2022-10-31T01:14:41;19.59;64.37
66596;SHT31;59017;49.252;18.838;2022-10-31T01:17:07;19.59;64.30
66596;SHT31;59017;49.252;18.838;2022-10-31T01:19:32;19.56;64.26
66596;SHT31;59017;49.252;18.838;2022-10-31T01:21:58;19.57;64.22
66596;SHT31;59017;49.252;18.838;2022-10-31T01:24:23;19.56;64.27
66596;SHT31;59017;49.252;18.838;2022-10-31T01:26:49;19.55;64.46
66596;SHT31;59017;49.252;18.838;2022-10-31T01:29:14;19.57;64.36
66596;SHT31;59017;49.252;18.838;2022-10-31T01:31:40;19.57;64.42
66596;SHT31;59017;49.252;18.838;2022-10-31T01:34:06;19.56;64.17
66596;SHT31;59017;49.252;18.838;2022-10-31T01:36:37;19.56;64.25
66596;SHT31;59017;49.252;18.838;2022-10-31T01:39:05;19.56;64.26
66596;SHT31;59017;49.252;18.838;2022-10-31T01:41:33;19.56;64.25
66596;SHT31;59017;49.252;18.838;2022-10-31T01:44:43;19.56;64.33
66596;SHT31;59017;49.252;18.838;2022-10-31T01:49:25;19.56;64.17
66596;SHT31;59017;49.252;18.838;2022-10-31T01:52:16;19.53;64.08
66596;SHT31;59017;49.252;18.838;2022-10-31T01:54:50;19.56;64.23
66596;SHT31;59017;49.252;18.838;2022-10-31T01:57:18;19.55;63.92
66596;SHT31;59017;49.252;18.838;2022-10-31T01:59:47;19.56;64.08
66596;SHT31;59017;49.252;18.838;2022-10-31T02:02:15;19.53;64.05
66596;SHT31;59017;49.252;18.838;2022-10-31T02:04:41;19.55;64.32
66596;SHT31;59017;49.252;18.838;2022-10-31T02:07:17;19.55;64.32
66596;SHT31;59017;49.252;18.838;2022-10-31T02:09:44;19.53;64.30
66596;SHT31;59017;49.252;18.838;2022-10-31T02:12:11;19.53;64.36
66596;SHT31;59017;49.252;18.838;2022-10-31T02:14:38;19.56;64.37
66596;SHT31;59017;49.252;18.838;2022-10-31T02:17:04;19.55;64.41
66596;SHT31;59017;49.252;18.838;2022-10-31T02:22:17;19.57;64.23
66596;SHT31;59017;49.252;18.838;2022-10-31T02:33:29;19.55;64.03
66596;SHT31;59017;49.252;18.838;2022-10-31T02:36:12;19.53;63.92
66596;SHT31;59017;49.252;18.838;2022-10-31T02:39:11;19.50;63.73
66596;SHT31;59017;49.252;18.838;2022-10-31T02:47:05;19.50;63.89
66596;SHT31;59017;49.252;18.838;2022-10-31T02:50:00;19.50;63.88
66596;SHT31;59017;49.252;18.838;2022-10-31T02:52:29;19.52;63.90
66596;SHT31;59017;49.252;18.838;2022-10-31T02:54:55;19.49;63.80
66596;SHT31;59017;49.252;18.838;2022-10-31T02:57:30;19.47;63.75
66596;SHT31;59017;49.252;18.838;2022-10-31T03:00:15;19.47;63.75
66596;SHT31;59017;49.252;18.838;2022-10-31T03:08:30;19.49;63.81
66596;SHT31;59017;49.252;18.838;2022-10-31T03:11:02;19.47;63.76
66596;SHT31;59017;49.252;18.838;2022-10-31T03:13:49;19.45;63.54
66596;SHT31;59017;49.252;18.838;2022-10-31T03:16:56;19.46;63.95
66596;SHT31;59017;49.252;18.838;2022-10-31T03:19:19;19.45;63.87
66596;SHT31;59017;49.252;18.838;2022-10-31T03:21:49;19.46;63.65
66596;SHT31;59017;49.252;18.838;2022-10-31T03:24:16;19.46;63.51
66596;SHT31;59017;49.252;18.838;2022-10-31T03:26:45;19.45;63.91
66596;SHT31;59017;49.252;18.838;2022-10-31T03:29:15;19.46;63.89
66596;SHT31;59017;49.252;18.838;2022-10-31T03:31:49;19.42;63.93
66596;SHT31;59017;49.252;18.838;2022-10-31T03:34:18;19.46;63.90
66596;SHT31;59017;49.252;18.838;2022-10-31T03:36:45;19.45;63.82
66596;SHT31;59017;49.252;18.838;2022-10-31T03:39:14;19.47;63.75
66596;SHT31;59017;49.252;18.838;2022-10-31T03:41:44;19.47;63.75
66596;SHT31;59017;49.252;18.838;2022-10-31T03:44:14;19.43;63.69
66596;SHT31;59017;49.252;18.838;2022-10-31T03:46:41;19.45;63.74
66596;SHT31;59017;49.252;18.838;2022-10-31T03:49:08;19.45;63.83
66596;SHT31;59017;49.252;18.838;2022-10-31T03:51:47;19.45;63.67
66596;SHT31;59017;49.252;18.838;2022-10-31T03:54:21;19.46;63.77
66596;SHT31;59017;49.252;18.838;2022-10-31T03:56:55;19.43;63.67
66596;SHT31;59017;49.252;18.838;2022-10-31T03:59:30;19.45;63.72
66596;SHT31;59017;49.252;18.838;2022-10-31T04:02:00;19.46;63.74
66596;SHT31;59017;49.252;18.838;2022-10-31T04:04:28;19.45;63.61
66596;SHT31;59017;49.252;18.838;2022-10-31T04:06:56;19.45;63.29
66596;SHT31;59017;49.252;18.838;2022-10-31T04:09:25;19.45;63.58
66596;SHT31;59017;49.252;18.838;2022-10-31T04:11:53;19.45;63.74
66596;SHT31;59017;49.252;18.838;2022-10-31T04:14:22;19.40;63.65
66596;SHT31;59017;49.252;18.838;2022-10-31T04:16:49;19.45;63.60
66596;SHT31;59017;49.252;18.838;2022-10-31T04:19:15;19.43;63.51
66596;SHT31;59017;49.252;18.838;2022-10-31T04:21:41;19.43;63.45
66596;SHT31;59017;49.252;18.838;2022-10-31T04:24:09;19.42;63.37
66596;SHT31;59017;49.252;18.838;2022-10-31T04:26:34;19.43;63.27
66596;SHT31;59017;49.252;18.838;2022-10-31T04:29:00;19.45;63.27
66596;SHT31;59017;49.252;18.838;2022-10-31T04:31:25;19.42;63.22
66596;SHT31;59017;49.252;18.838;2022-10-31T04:33:51;19.43;63.20
66596;SHT31;59017;49.252;18.838;2022-10-31T04:36:16;19.43;63.22
66596;SHT31;59017;49.252;18.838;2022-10-31T04:38:42;19.42;63.04
66596;SHT31;59017;49.252;18.838;2022-10-31T04:41:07;19.43;63.10
66596;SHT31;59017;49.252;18.838;2022-10-31T04:43:33;19.42;63.11
66596;SHT31;59017;49.252;18.838;2022-10-31T04:45:58;19.42;63.17
66596;SHT31;59017;49.252;18.838;2022-10-31T04:48:24;19.43;63.12
66596;SHT31;59017;49.252;18.838;2022-10-31T04:50:49;19.43;63.16
66596;SHT31;59017;49.252;18.838;2022-10-31T04:53:15;19.42;63.12
66596;SHT31;59017;49.252;18.838;2022-10-31T04:55:40;19.43;63.03
66596;SHT31;59017;49.252;18.838;2022-10-31T04:58:06;19.42;62.98
66596;SHT31;59017;49.252;18.838;2022-10-31T05:00:31;19.42;63.00
66596;SHT31;59017;49.252;18.838;2022-10-31T05:02:57;19.40;62.97
66596;SHT31;59017;49.252;18.838;2022-10-31T05:05:29;19.42;62.99
66596;SHT31;59017;49.252;18.838;2022-10-31T05:07:55;19.42;63.11
66596;SHT31;59017;49.252;18.838;2022-10-31T05:10:23;19.40;62.98
66596;SHT31;59017;49.252;18.838;2022-10-31T05:12:51;19.42;62.92
66596;SHT31;59017;49.252;18.838;2022-10-31T05:15:20;19.42;62.87
66596;SHT31;59017;49.252;18.838;2022-10-31T05:17:46;19.43;62.87
66596;SHT31;59017;49.252;18.838;2022-10-31T05:20:13;19.42;62.78
66596;SHT31;59017;49.252;18.838;2022-10-31T05:22:46;19.40;62.93
66596;SHT31;59017;49.252;18.838;2022-10-31T05:25:12;19.40;62.81
66596;SHT31;59017;49.252;18.838;2022-10-31T05:27:39;19.39;62.82
66596;SHT31;59017;49.252;18.838;2022-10-31T05:30:05;19.42;62.74
66596;SHT31;59017;49.252;18.838;2022-10-31T05:32:40;19.42;62.62
66596;SHT31;59017;49.252;18.838;2022-10-31T05:35:07;19.40;62.87
66596;SHT31;59017;49.252;18.838;2022-10-31T05:37:34;19.37;62.93
66596;SHT31;59017;49.252;18.838;2022-10-31T05:40:01;19.37;62.88
66596;SHT31;59017;49.252;18.838;2022-10-31T05:42:26;19.40;62.78
66596;SHT31;59017;49.252;18.838;2022-10-31T05:44:52;19.37;62.81
66596;SHT31;59017;49.252;18.838;2022-10-31T05:47:17;19.39;62.80
66596;SHT31;59017;49.252;18.838;2022-10-31T05:49:43;19.39;62.87
66596;SHT31;59017;49.252;18.838;2022-10-31T05:52:08;19.39;62.87
66596;SHT31;59017;49.252;18.838;2022-10-31T05:54:33;19.37;62.87
66596;SHT31;59017;49.252;18.838;2022-10-31T05:56:59;19.37;62.87
66596;SHT31;59017;49.252;18.838;2022-10-31T05:59:24;19.35;62.82
66596;SHT31;59017;49.252;18.838;2022-10-31T06:01:50;19.37;62.90
66596;SHT31;59017;49.252;18.838;2022-10-31T06:04:15;19.37;62.99
66596;SHT31;59017;49.252;18.838;2022-10-31T06:06:41;19.36;62.90
66596;SHT31;59017;49.252;18.838;2022-10-31T06:09:06;19.39;62.91
66596;SHT31;59017;49.252;18.838;2022-10-31T06:11:31;19.39;63.00
66596;SHT31;59017;49.252;18.838;2022-10-31T06:13:57;19.40;62.93
66596;SHT31;59017;49.252;18.838;2022-10-31T06:16:22;19.42;62.71
66596;SHT31;59017;49.252;18.838;2022-10-31T06:18:48;19.39;62.51
66596;SHT31;59017;49.252;18.838;2022-10-31T06:21:13;19.42;62.42
66596;SHT31;59017;49.252;18.838;2022-10-31T06:23:39;19.40;62.26
66596;SHT31;59017;49.252;18.838;2022-10-31T06:26:04;19.43;62.25
66596;SHT31;59017;49.252;18.838;2022-10-31T06:28:30;19.46;62.31
66596;SHT31;59017;49.252;18.838;2022-10-31T06:30:55;19.50;60.75
66596;SHT31;59017;49.252;18.838;2022-10-31T06:33:20;19.59;60.26
66596;SHT31;59017;49.252;18.838;2022-10-31T06:35:47;19.52;59.52
66596;SHT31;59017;49.252;18.838;2022-10-31T06:38:13;19.49;59.22
66596;SHT31;59017;49.252;18.838;2022-10-31T06:40:38;19.52;58.73
66596;SHT31;59017;49.252;18.838;2022-10-31T06:43:04;19.50;58.42
66596;SHT31;59017;49.252;18.838;2022-10-31T06:45:29;19.55;58.31
66596;SHT31;59017;49.252;18.838;2022-10-31T06:47:56;19.55;58.02
66596;SHT31;59017;49.252;18.838;2022-10-31T06:50:22;19.55;58.11
66596;SHT31;59017;49.252;18.838;2022-10-31T06:52:56;19.55;57.80
66596;SHT31;59017;49.252;18.838;2022-10-31T06:55:22;19.55;58.02
66596;SHT31;59017;49.252;18.838;2022-10-31T06:57:59;19.50;57.78
66596;SHT31;59017;49.252;18.838;2022-10-31T07:00:28;19.50;58.62
66596;SHT31;59017;49.252;18.838;2022-10-31T07:03:01;19.36;58.05
66596;SHT31;59017;49.252;18.838;2022-10-31T07:05:28;19.42;57.69
66596;SHT31;59017;49.252;18.838;2022-10-31T07:07:58;19.25;57.55
66596;SHT31;59017;49.252;18.838;2022-10-31T07:10:25;19.11;57.69
66596;SHT31;59017;49.252;18.838;2022-10-31T07:12:59;19.23;57.16
66596;SHT31;59017;49.252;18.838;2022-10-31T07:15:26;19.33;57.04
66596;SHT31;59017;49.252;18.838;2022-10-31T07:17:52;19.18;57.02
66596;SHT31;59017;49.252;18.838;2022-10-31T07:20:17;19.09;57.06
66596;SHT31;59017;49.252;18.838;2022-10-31T07:22:43;19.04;56.72
66596;SHT31;59017;49.252;18.838;2022-10-31T07:25:09;18.98;56.70
66596;SHT31;59017;49.252;18.838;2022-10-31T07:27:40;18.95;56.65
66596;SHT31;59017;49.252;18.838;2022-10-31T07:30:07;19.01;56.48
66596;SHT31;59017;49.252;18.838;2022-10-31T07:32:44;18.87;56.63
66596;SHT31;59017;49.252;18.838;2022-10-31T07:35:12;18.91;56.32
66596;SHT31;59017;49.252;18.838;2022-10-31T07:37:38;19.15;56.48
66596;SHT31;59017;49.252;18.838;2022-10-31T07:40:05;19.22;56.48
66596;SHT31;59017;49.252;18.838;2022-10-31T07:42:40;19.30;56.41
66596;SHT31;59017;49.252;18.838;2022-10-31T07:45:09;19.30;56.24
66596;SHT31;59017;49.252;18.838;2022-10-31T07:48:01;19.30;56.41
66596;SHT31;59017;49.252;18.838;2022-10-31T07:50:31;19.33;56.19
66596;SHT31;59017;49.252;18.838;2022-10-31T07:55:31;19.42;56.26
66596;SHT31;59017;49.252;18.838;2022-10-31T07:57:58;19.36;55.93
66596;SHT31;59017;49.252;18.838;2022-10-31T08:00:24;19.42;56.20
66596;SHT31;59017;49.252;18.838;2022-10-31T08:03:07;19.43;56.41
66596;SHT31;59017;49.252;18.838;2022-10-31T08:05:34;19.28;56.17
66596;SHT31;59017;49.252;18.838;2022-10-31T08:07:59;19.29;56.15
66596;SHT31;59017;49.252;18.838;2022-10-31T08:10:26;19.37;56.36
66596;SHT31;59017;49.252;18.838;2022-10-31T08:13:07;19.42;56.47
66596;SHT31;59017;49.252;18.838;2022-10-31T08:15:34;19.42;56.43
66596;SHT31;59017;49.252;18.838;2022-10-31T08:18:02;19.39;56.06
66596;SHT31;59017;49.252;18.838;2022-10-31T08:20:28;19.40;56.14
66596;SHT31;59017;49.252;18.838;2022-10-31T08:22:59;19.43;56.20
66596;SHT31;59017;49.252;18.838;2022-10-31T08:25:26;19.39;56.37
66596;SHT31;59017;49.252;18.838;2022-10-31T08:27:53;19.25;56.29
66596;SHT31;59017;49.252;18.838;2022-10-31T08:30:20;18.99;56.38
66596;SHT31;59017;49.252;18.838;2022-10-31T08:32:46;18.91;56.00
66596;SHT31;59017;49.252;18.838;2022-10-31T08:35:12;18.78;56.03
66596;SHT31;59017;49.252;18.838;2022-10-31T08:37:37;18.87;55.94
66596;SHT31;59017;49.252;18.838;2022-10-31T08:40:04;18.94;55.96
66596;SHT31;59017;49.252;18.838;2022-10-31T08:42:29;19.07;55.87
66596;SHT31;59017;49.252;18.838;2022-10-31T08:44:55;19.22;56.41
66596;SHT31;59017;49.252;18.838;2022-10-31T08:47:20;19.36;56.18
66596;SHT31;59017;49.252;18.838;2022-10-31T08:49:46;19.30;55.98
66596;SHT31;59017;49.252;18.838;2022-10-31T08:52:11;19.28;55.84
66596;SHT31;59017;49.252;18.838;2022-10-31T08:54:36;19.35;55.84
66596;SHT31;59017;49.252;18.838;2022-10-31T08:57:02;19.35;55.85
66596;SHT31;59017;49.252;18.838;2022-10-31T08:59:27;19.36;55.87
66596;SHT31;59017;49.252;18.838;2022-10-31T09:01:53;19.11;55.58
66596;SHT31;59017;49.252;18.838;2022-10-31T09:04:18;19.18;55.83
66596;SHT31;59017;49.252;18.838;2022-10-31T09:06:44;19.22;55.89
66596;SHT31;59017;49.252;18.838;2022-10-31T09:09:09;19.26;55.57
66596;SHT31;59017;49.252;18.838;2022-10-31T09:11:35;19.01;55.79
66596;SHT31;59017;49.252;18.838;2022-10-31T09:14:00;19.08;55.74
66596;SHT31;59017;49.252;18.838;2022-10-31T09:16:26;18.99;55.62
66596;SHT31;59017;49.252;18.838;2022-10-31T09:18:51;18.95;55.55
66596;SHT31;59017;49.252;18.838;2022-10-31T09:21:17;18.88;55.76
66596;SHT31;59017;49.252;18.838;2022-10-31T09:23:42;19.02;55.50
66596;SHT31;59017;49.252;18.838;2022-10-31T09:26:07;18.89;55.79
66596;SHT31;59017;49.252;18.838;2022-10-31T09:28:33;18.74;55.86
66596;SHT31;59017;49.252;18.838;2022-10-31T09:30:58;18.77;55.87
66596;SHT31;59017;49.252;18.838;2022-10-31T09:33:24;18.77;56.41
66596;SHT31;59017;49.252;18.838;2022-10-31T09:35:49;18.71;56.23
66596;SHT31;59017;49.252;18.838;2022-10-31T09:38:20;18.78;56.59
66596;SHT31;59017;49.252;18.838;2022-10-31T09:44:06;19.15;56.35
66596;SHT31;59017;49.252;18.838;2022-10-31T09:52:21;19.12;56.13
66596;SHT31;59017;49.252;18.838;2022-10-31T09:54:58;18.99;56.43
66596;SHT31;59017;49.252;18.838;2022-10-31T09:57:28;18.83;56.73
66596;SHT31;59017;49.252;18.838;2022-10-31T09:59:55;18.74;56.61
66596;SHT31;59017;49.252;18.838;2022-10-31T10:02:40;18.72;56.83
66596;SHT31;59017;49.252;18.838;2022-10-31T10:05:22;18.68;56.85
66596;SHT31;59017;49.252;18.838;2022-10-31T10:13:36;18.98;56.34
66596;SHT31;59017;49.252;18.838;2022-10-31T10:22:43;19.15;56.37
66596;SHT31;59017;49.252;18.838;2022-10-31T10:33:04;19.59;55.89
66596;SHT31;59017;49.252;18.838;2022-10-31T10:38:20;19.52;55.88
66596;SHT31;59017;49.252;18.838;2022-10-31T10:40:47;19.47;55.71
66596;SHT31;59017;49.252;18.838;2022-10-31T10:43:38;19.63;55.79
66596;SHT31;59017;49.252;18.838;2022-10-31T10:52:01;19.90;55.65
66596;SHT31;59017;49.252;18.838;2022-10-31T11:00:18;20.01;55.80
66596;SHT31;59017;49.252;18.838;2022-10-31T11:02:44;20.07;55.56
66596;SHT31;59017;49.252;18.838;2022-10-31T11:05:19;20.10;55.56
66596;SHT31;59017;49.252;18.838;2022-10-31T11:07:45;20.14;55.46
66596;SHT31;59017;49.252;18.838;2022-10-31T11:10:15;20.14;55.40
66596;SHT31;59017;49.252;18.838;2022-10-31T11:12:43;20.20;55.40
66596;SHT31;59017;49.252;18.838;2022-10-31T11:15:22;20.18;55.41
66596;SHT31;59017;49.252;18.838;2022-10-31T11:17:50;20.22;55.27
66596;SHT31;59017;49.252;18.838;2022-10-31T11:22:44;20.26;55.23
66596;SHT31;59017;49.252;18.838;2022-10-31T11:27:44;20.31;55.24
66596;SHT31;59017;49.252;18.838;2022-10-31T11:30:12;20.29;55.32
66596;SHT31;59017;49.252;18.838;2022-10-31T11:32:44;20.32;55.27
66596;SHT31;59017;49.252;18.838;2022-10-31T11:35:14;20.32;55.14
66596;SHT31;59017;49.252;18.838;2022-10-31T11:37:44;20.33;55.19
66596;SHT31;59017;49.252;18.838;2022-10-31T11:40:25;20.38;55.49
66596;SHT31;59017;49.252;18.838;2022-10-31T11:42:56;20.36;55.38
66596;SHT31;59017;49.252;18.838;2022-10-31T11:47:50;20.42;55.57
66596;SHT31;59017;49.252;18.838;2022-10-31T11:50:24;20.43;55.33
66596;SHT31;59017;49.252;18.838;2022-10-31T11:52:51;20.43;55.30
66596;SHT31;59017;49.252;18.838;2022-10-31T11:55:31;20.41;55.53
66596;SHT31;59017;49.252;18.838;2022-10-31T11:57:57;20.43;55.46
66596;SHT31;59017;49.252;18.838;2022-10-31T12:02:48;20.49;55.41
66596;SHT31;59017;49.252;18.838;2022-10-31T12:07:45;20.49;55.44
66596;SHT31;59017;49.252;18.838;2022-10-31T12:10:12;20.53;55.53
66596;SHT31;59017;49.252;18.838;2022-10-31T12:15:33;20.53;55.56
66596;SHT31;59017;49.252;18.838;2022-10-31T12:27:03;20.63;55.47
66596;SHT31;59017;49.252;18.838;2022-10-31T12:35:09;20.62;55.55
66596;SHT31;59017;49.252;18.838;2022-10-31T12:40:51;20.66;55.53
66596;SHT31;59017;49.252;18.838;2022-10-31T12:43:36;20.65;55.28
66596;SHT31;59017;49.252;18.838;2022-10-31T12:52:12;20.68;55.32
66596;SHT31;59017;49.252;18.838;2022-10-31T12:54:55;20.68;55.45
66596;SHT31;59017;49.252;18.838;2022-10-31T12:57:33;20.66;55.52
66596;SHT31;59017;49.252;18.838;2022-10-31T13:00:07;20.70;55.49
66596;SHT31;59017;49.252;18.838;2022-10-31T13:02:56;20.69;55.40
66596;SHT31;59017;49.252;18.838;2022-10-31T13:05:57;20.69;55.55
66596;SHT31;59017;49.252;18.838;2022-10-31T13:08:39;20.70;55.37
66596;SHT31;59017;49.252;18.838;2022-10-31T13:11:24;20.72;55.37
66596;SHT31;59017;49.252;18.838;2022-10-31T13:16:44;20.72;55.29
66596;SHT31;59017;49.252;18.838;2022-10-31T13:19:21;20.75;55.23
66596;SHT31;59017;49.252;18.838;2022-10-31T13:22:09;20.75;55.28
66596;SHT31;59017;49.252;18.838;2022-10-31T13:24:39;20.73;55.28
66596;SHT31;59017;49.252;18.838;2022-10-31T13:27:17;20.76;55.34
66596;SHT31;59017;49.252;18.838;2022-10-31T13:32:41;20.77;55.46
66596;SHT31;59017;49.252;18.838;2022-10-31T13:35:15;20.77;55.49
66596;SHT31;59017;49.252;18.838;2022-10-31T13:37:48;20.77;55.34
66596;SHT31;59017;49.252;18.838;2022-10-31T13:40:54;20.80;55.55
66596;SHT31;59017;49.252;18.838;2022-10-31T13:46:26;20.76;55.50
66596;SHT31;59017;49.252;18.838;2022-10-31T13:48:59;20.80;55.37
66596;SHT31;59017;49.252;18.838;2022-10-31T13:51:29;20.77;55.48
66596;SHT31;59017;49.252;18.838;2022-10-31T13:54:21;20.80;55.77
66596;SHT31;59017;49.252;18.838;2022-10-31T13:56:51;20.81;55.40
66596;SHT31;59017;49.252;18.838;2022-10-31T13:59:19;20.81;55.46
66596;SHT31;59017;49.252;18.838;2022-10-31T14:01:51;20.80;55.52
66596;SHT31;59017;49.252;18.838;2022-10-31T14:04:25;20.81;55.93
66596;SHT31;59017;49.252;18.838;2022-10-31T14:07:12;20.83;55.68
66596;SHT31;59017;49.252;18.838;2022-10-31T14:09:52;20.86;55.54
66596;SHT31;59017;49.252;18.838;2022-10-31T14:12:33;20.84;55.55
66596;SHT31;59017;49.252;18.838;2022-10-31T14:15:23;20.83;55.41
66596;SHT31;59017;49.252;18.838;2022-10-31T14:23:39;20.83;55.83
66596;SHT31;59017;49.252;18.838;2022-10-31T14:31:50;20.86;55.88
66596;SHT31;59017;49.252;18.838;2022-10-31T14:34:22;20.84;55.99
66596;SHT31;59017;49.252;18.838;2022-10-31T14:39:47;20.86;55.96
66596;SHT31;59017;49.252;18.838;2022-10-31T14:45:23;20.81;56.05
66596;SHT31;59017;49.252;18.838;2022-10-31T14:48:06;20.81;56.10
66596;SHT31;59017;49.252;18.838;2022-10-31T14:50:45;20.81;56.07
66596;SHT31;59017;49.252;18.838;2022-10-31T14:53:18;20.79;56.09
66596;SHT31;59017;49.252;18.838;2022-10-31T14:55:48;20.79;56.10
66596;SHT31;59017;49.252;18.838;2022-10-31T14:58:19;20.77;56.09
66596;SHT31;59017;49.252;18.838;2022-10-31T15:00:45;20.76;56.06
66596;SHT31;59017;49.252;18.838;2022-10-31T15:03:16;20.79;56.23
66596;SHT31;59017;49.252;18.838;2022-10-31T15:05:54;20.76;56.14
66596;SHT31;59017;49.252;18.838;2022-10-31T15:08:55;20.75;56.49
66596;SHT31;59017;49.252;18.838;2022-10-31T15:11:24;20.77;56.37
66596;SHT31;59017;49.252;18.838;2022-10-31T15:13:52;20.72;56.44
66596;SHT31;59017;49.252;18.838;2022-10-31T15:16:24;20.72;56.35
66596;SHT31;59017;49.252;18.838;2022-10-31T15:18:54;20.73;56.44
66596;SHT31;59017;49.252;18.838;2022-10-31T15:21:22;20.73;56.54
66596;SHT31;59017;49.252;18.838;2022-10-31T15:23:50;20.75;56.54
66596;SHT31;59017;49.252;18.838;2022-10-31T15:26:19;20.69;56.71
66596;SHT31;59017;49.252;18.838;2022-10-31T15:28:45;20.69;56.75
66596;SHT31;59017;49.252;18.838;2022-10-31T15:31:17;20.70;56.77
66596;SHT31;59017;49.252;18.838;2022-10-31T15:33:48;20.68;56.73
66596;SHT31;59017;49.252;18.838;2022-10-31T15:36:21;20.66;56.97
66596;SHT31;59017;49.252;18.838;2022-10-31T15:38:48;20.68;56.97
66596;SHT31;59017;49.252;18.838;2022-10-31T15:43:53;20.66;56.99
66596;SHT31;59017;49.252;18.838;2022-10-31T15:46:19;20.69;56.93
66596;SHT31;59017;49.252;18.838;2022-10-31T15:48:47;20.68;56.96
66596;SHT31;59017;49.252;18.838;2022-10-31T15:51:13;20.68;57.04
66596;SHT31;59017;49.252;18.838;2022-10-31T15:53:45;20.69;57.02
66596;SHT31;59017;49.252;18.838;2022-10-31T15:56:20;20.65;57.05
66596;SHT31;59017;49.252;18.838;2022-10-31T15:58:48;20.66;57.24
66596;SHT31;59017;49.252;18.838;2022-10-31T16:04:00;20.66;57.22
66596;SHT31;59017;49.252;18.838;2022-10-31T16:06:27;20.66;57.24
66596;SHT31;59017;49.252;18.838;2022-10-31T16:08:52;20.66;57.28
66596;SHT31;59017;49.252;18.838;2022-10-31T16:11:22;20.65;57.45
66596;SHT31;59017;49.252;18.838;2022-10-31T16:14:25;20.68;57.36
66596;SHT31;59017;49.252;18.838;2022-10-31T16:16:48;20.65;57.35
66596;SHT31;59017;49.252;18.838;2022-10-31T16:19:35;20.63;57.48
66596;SHT31;59017;49.252;18.838;2022-10-31T16:22:13;20.65;57.24
66596;SHT31;59017;49.252;18.838;2022-10-31T16:24:55;20.65;57.45
66596;SHT31;59017;49.252;18.838;2022-10-31T16:27:27;20.65;57.32
66596;SHT31;59017;49.252;18.838;2022-10-31T16:29:58;20.63;57.67
66596;SHT31;59017;49.252;18.838;2022-10-31T16:35:31;20.62;57.73
66596;SHT31;59017;49.252;18.838;2022-10-31T16:37:57;20.60;57.90
66596;SHT31;59017;49.252;18.838;2022-10-31T16:40:23;20.56;58.00
66596;SHT31;59017;49.252;18.838;2022-10-31T16:42:49;20.60;57.85
66596;SHT31;59017;49.252;18.838;2022-10-31T16:45:17;20.59;57.74
66596;SHT31;59017;49.252;18.838;2022-10-31T16:47:43;20.59;57.96
66596;SHT31;59017;49.252;18.838;2022-10-31T16:50:15;20.60;58.10
66596;SHT31;59017;49.252;18.838;2022-10-31T16:52:41;20.62;58.05
66596;SHT31;59017;49.252;18.838;2022-10-31T16:55:11;20.60;58.15
66596;SHT31;59017;49.252;18.838;2022-10-31T16:57:37;20.59;58.04
66596;SHT31;59017;49.252;18.838;2022-10-31T17:00:03;20.60;58.11
66596;SHT31;59017;49.252;18.838;2022-10-31T17:02:28;20.59;58.19
66596;SHT31;59017;49.252;18.838;2022-10-31T17:04:54;20.62;57.92
66596;SHT31;59017;49.252;18.838;2022-10-31T17:07:19;20.62;58.54
66596;SHT31;59017;49.252;18.838;2022-10-31T17:09:45;20.60;58.41
66596;SHT31;59017;49.252;18.838;2022-10-31T17:12:17;20.62;58.30
66596;SHT31;59017;49.252;18.838;2022-10-31T17:14:47;20.62;58.23
66596;SHT31;59017;49.252;18.838;2022-10-31T17:17:15;20.62;58.41
66596;SHT31;59017;49.252;18.838;2022-10-31T17:19:40;20.63;58.85
66596;SHT31;59017;49.252;18.838;2022-10-31T17:22:06;20.63;58.57
66596;SHT31;59017;49.252;18.838;2022-10-31T17:24:33;20.57;59.17
66596;SHT31;59017;49.252;18.838;2022-10-31T17:26:58;20.55;59.32
66596;SHT31;59017;49.252;18.838;2022-10-31T17:29:24;20.53;59.32
66596;SHT31;59017;49.252;18.838;2022-10-31T17:31:49;20.51;59.65
66596;SHT31;59017;49.252;18.838;2022-10-31T17:34:14;20.52;59.76
66596;SHT31;59017;49.252;18.838;2022-10-31T17:36:40;20.48;60.05
66596;SHT31;59017;49.252;18.838;2022-10-31T17:39:05;20.48;59.88
66596;SHT31;59017;49.252;18.838;2022-10-31T17:41:33;20.48;60.20
66596;SHT31;59017;49.252;18.838;2022-10-31T17:43:59;20.43;60.58
66596;SHT31;59017;49.252;18.838;2022-10-31T17:46:25;20.41;60.67
66596;SHT31;59017;49.252;18.838;2022-10-31T17:48:50;20.36;60.90
66596;SHT31;59017;49.252;18.838;2022-10-31T17:51:16;20.38;60.87
66596;SHT31;59017;49.252;18.838;2022-10-31T17:53:41;20.35;60.88
66596;SHT31;59017;49.252;18.838;2022-10-31T17:56:08;20.32;61.33